Orange, Texas
Current Conditions -  °F | °C
As of 9:15 AM on Thursday 18 Dec 2014 (Local Time) from KORG Reporting Station
Overcast Overcast  
Wind Chill: 59°   Ceiling: 600
Heat Index: 59°   Visibility: 10mi
Dew Point: 57°   Wind: 5mph
Humidity: 91%   Direction: 80°E
Pressure: 30.13"   Gusts: NA
Location:  30.09°N, 93.74°W
Report Text: KORG 181515Z AUTO 08004KT 10SM OVC006 15/14 A3013 RMK AO2 T01510137
Loading
Personal Weather Stations






























Interactive Weather Map New forecast layout! Learn more

10-Day Weather Forecast

Advertisements
Track Severe Weather on mobile